This is the latest recevied weather packets stored in our database for station/object KE9DBJ-13. If no packets are shown the sender has not sent any weather packets the latest 10 day(s).
| Time | Temp. | Humidity | Pressure | Rain* | Wind** | Luminosity | Snow |
|---|---|---|---|---|---|---|---|
| 1777948202 | 16.67° C | 67% | 1005.3 hPa | 0 mm | - | - | - |
| 1777947602 | 16.67° C | 66% | 1005.3 hPa | 0 mm | - | - | - |
| 1777947002 | 17.22° C | 64% | 1004.9 hPa | 0 mm | - | - | - |
| 1777946402 | 17.78° C | 64% | 1004.8 hPa | 0 mm | - | - | - |
| 1777945802 | 17.78° C | 62% | 1004.5 hPa | 0 mm | - | - | - |
| 1777945203 | 18.33° C | 61% | 1004.4 hPa | 0 mm | - | - | - |
| 1777944603 | 18.33° C | 59% | 1004.5 hPa | 0 mm | - | - | - |
| 1777944003 | 18.33° C | 60% | 1004.4 hPa | 0 mm | - | - | - |
| 1777943403 | 18.89° C | 59% | 1004.3 hPa | 0 mm | - | - | - |
| 1777942803 | 18.89° C | 58% | 1004.4 hPa | 0 mm | - | - | - |
| 1777942203 | 19.44° C | 57% | 1004.4 hPa | 0 mm | - | - | - |
| 1777941603 | 20° C | 55% | 1004.4 hPa | 0 mm | - | - | - |
| 1777941003 | 20° C | 54% | 1004.4 hPa | 0 mm | - | - | - |
| 1777940402 | 21.11° C | 53% | 1004.5 hPa | 0 mm | - | - | - |
| 1777939802 | 21.67° C | 51% | 1004.5 hPa | 0 mm | - | - | - |
| 1777939202 | 22.22° C | 51% | 1004.6 hPa | 0 mm | - | - | - |
| 1777938602 | 22.78° C | 51% | 1004.7 hPa | 0 mm | - | - | - |
| 1777938002 | 23.89° C | 49% | 1004.7 hPa | 0 mm | - | - | - |
| 1777937402 | 24.44° C | 48% | 1004.8 hPa | 0 mm | - | - | - |
| 1777936802 | 23.89° C | 50% | 1005 hPa | 0 mm | - | - | - |
| 1777936202 | 23.89° C | 50% | 1005.2 hPa | 0 mm | - | - | - |
| 1777935603 | 24.44° C | 46% | 1005.1 hPa | 0 mm | - | - | - |
| 1777935003 | 25° C | 44% | 1005.3 hPa | 0 mm | - | - | - |
| 1777934403 | 25° C | 45% | 1005.2 hPa | 0 mm | - | - | - |
| 1777933803 | 25° C | 46% | 1005.2 hPa | 0 mm | - | - | - |
* Rain latest hour (hover to see other rain measurements)
** Current wind speed in m/s (hover to see current wind gust speed)